Time;durP1;ratioP1;P1;durP2;ratioP2;P2;SDS_P1;SDS_P2;PMS_P1;PMS_P2;Temp;Humidity;BMP_temperature;BMP_pressure;BME280_temperature;BME280_humidity;BME280_pressure;Samples;Min_cycle;Max_cycle;Signal;HPM_P1;HPM_P2
2023/05/18 00:00:29;;;;;;;10.25;2.55;;;10.70;99.90;;;;;;5093895;28;20232;-71
2023/05/18 00:03:18;;;;;;;12.82;2.67;;;10.70;99.90;;;;;;5105648;27;20691;-73
2023/05/18 00:06:09;;;;;;;8.65;2.78;;;10.70;99.90;;;;;;5093474;28;20227;-70
2023/05/18 00:08:59;;;;;;;11.02;2.40;;;10.60;99.90;;;;;;5095657;28;20215;-72
2023/05/18 00:11:48;;;;;;;13.50;2.17;;;10.60;99.90;;;;;;5101031;28;20222;-72
2023/05/18 00:14:37;;;;;;;10.18;2.97;;;10.60;99.90;;;;;;5089187;28;20266;-72
2023/05/18 00:17:26;;;;;;;9.80;2.30;;;10.70;99.90;;;;;;5097697;27;20352;-72
2023/05/18 00:20:16;;;;;;;15.48;2.58;;;10.50;99.90;;;;;;5109237;28;20229;-73
2023/05/18 00:23:09;;;;;;;9.85;2.30;;;10.60;99.90;;;;;;5082803;28;20226;-72
2023/05/18 00:26:00;;;;;;;8.65;2.17;;;10.70;99.90;;;;;;5104727;28;20663;-73
2023/05/18 00:28:48;;;;;;;9.13;2.10;;;10.70;99.90;;;;;;5097626;28;20235;-73
2023/05/18 00:31:38;;;;;;;10.35;2.35;;;10.60;99.90;;;;;;5082454;28;20254;-73
2023/05/18 00:34:27;;;;;;;8.07;2.13;;;10.60;99.90;;;;;;5100478;28;20223;-74
2023/05/18 00:37:19;;;;;;;8.18;1.88;;;10.40;99.90;;;;;;5103956;28;20214;-73
2023/05/18 00:40:10;;;;;;;9.10;2.30;;;10.40;99.90;;;;;;5086546;28;20250;-74
2023/05/18 00:43:04;;;;;;;7.57;1.98;;;10.40;99.90;;;;;;5088006;27;20293;-73
2023/05/18 00:45:53;;;;;;;9.70;2.42;;;10.50;99.90;;;;;;5092748;28;20785;-73
2023/05/18 00:48:43;;;;;;;14.95;2.97;;;10.50;99.90;;;;;;5095771;27;20239;-73
2023/05/18 00:51:33;;;;;;;10.52;2.53;;;10.60;99.90;;;;;;5102020;28;20701;-74
2023/05/18 00:54:22;;;;;;;11.68;2.70;;;10.40;99.90;;;;;;5085456;28;20246;-76
2023/05/18 00:57:10;;;;;;;9.88;2.13;;;10.40;99.90;;;;;;5105505;27;20222;-75
2023/05/18 01:00:01;;;;;;;16.27;3.53;;;10.50;99.90;;;;;;5101938;27;20701;-74
2023/05/18 01:02:54;;;;;;;11.75;2.85;;;10.70;99.90;;;;;;5089412;28;20322;-76
2023/05/18 01:05:43;;;;;;;13.38;2.50;;;10.50;99.90;;;;;;5104839;27;20235;-75
2023/05/18 01:08:32;;;;;;;9.10;2.20;;;10.60;99.90;;;;;;5105394;27;20926;-76
2023/05/18 01:11:33;;;;;;;10.00;1.90;;;10.60;99.90;;;;;;5095062;28;20503;-77
2023/05/18 01:14:28;;;;;;;11.35;2.50;;;10.40;99.90;;;;;;5089806;28;20614;-74
2023/05/18 01:17:32;;;;;;;8.90;2.17;;;10.40;99.90;;;;;;5099320;27;20229;-75
2023/05/18 01:20:36;;;;;;;11.00;2.50;;;10.50;99.90;;;;;;5096776;27;20214;-73
2023/05/18 01:23:59;;;;;;;9.77;2.63;;;10.30;99.90;;;;;;5076129;28;20238;-74
2023/05/18 01:26:50;;;;;;;10.85;2.10;;;10.40;99.90;;;;;;5090713;28;20768;-74
2023/05/18 01:29:41;;;;;;;9.50;2.33;;;10.50;99.90;;;;;;5083458;28;20245;-75
2023/05/18 01:32:30;;;;;;;10.80;2.40;;;10.60;99.90;;;;;;5081776;28;20320;-74
2023/05/18 01:35:18;;;;;;;8.65;2.03;;;10.50;99.90;;;;;;5070031;28;20358;-74
2023/05/18 01:38:07;;;;;;;8.13;2.10;;;10.60;99.90;;;;;;5095702;27;20357;-75
2023/05/18 01:41:03;;;;;;;8.55;2.20;;;10.30;99.90;;;;;;5064561;28;20211;-72
2023/05/18 01:44:01;;;;;;;9.52;2.30;;;10.40;99.90;;;;;;5067993;28;20224;-72
2023/05/18 01:46:57;;;;;;;16.80;2.17;;;10.30;99.90;;;;;;5097136;27;20220;-71
2023/05/18 01:49:55;;;;;;;10.00;2.50;;;10.40;99.90;;;;;;5072319;28;20215;-70
2023/05/18 01:52:47;;;;;;;9.65;2.40;;;10.50;99.90;;;;;;5094338;28;20335;-71
2023/05/18 01:55:37;;;;;;;10.27;2.40;;;10.50;99.90;;;;;;5082835;28;20403;-71
2023/05/18 01:58:27;;;;;;;6.45;2.10;;;10.40;99.90;;;;;;5076911;28;20613;-71
2023/05/18 02:01:18;;;;;;;12.60;3.08;;;10.40;99.90;;;;;;5071578;28;20240;-72
2023/05/18 02:04:09;;;;;;;13.95;2.33;;;10.40;99.90;;;;;;5097907;27;20734;-71
2023/05/18 02:06:58;;;;;;;15.70;2.97;;;10.50;99.90;;;;;;5077607;28;20240;-71
2023/05/18 02:09:50;;;;;;;10.02;2.45;;;10.30;99.90;;;;;;5078834;28;20269;-73
2023/05/18 02:12:39;;;;;;;8.77;2.13;;;10.30;99.90;;;;;;5087889;28;20302;-71
2023/05/18 02:15:30;;;;;;;12.75;2.47;;;10.20;99.90;;;;;;5083091;28;20268;-72
2023/05/18 02:18:21;;;;;;;15.70;2.33;;;10.10;99.90;;;;;;5096776;28;20267;-70
2023/05/18 02:21:10;;;;;;;11.60;2.85;;;9.90;99.90;;;;;;5092039;28;20231;-70
2023/05/18 02:23:58;;;;;;;12.00;2.60;;;10.20;99.90;;;;;;5084928;28;20238;-71
2023/05/18 02:26:47;;;;;;;12.48;2.40;;;10.30;99.90;;;;;;5090235;28;20239;-71
2023/05/18 02:29:36;;;;;;;12.75;2.72;;;10.30;99.90;;;;;;5088415;28;20218;-72
2023/05/18 02:32:26;;;;;;;12.73;2.67;;;10.20;99.90;;;;;;5061349;28;20219;-72
2023/05/18 02:35:17;;;;;;;8.88;2.20;;;10.10;99.90;;;;;;5063985;28;20227;-71
2023/05/18 02:38:07;;;;;;;12.27;2.42;;;10.20;99.90;;;;;;5063825;28;20219;-70
2023/05/18 02:40:56;;;;;;;13.73;3.25;;;10.20;99.90;;;;;;5075168;27;20218;-72
2023/05/18 02:43:45;;;;;;;12.60;3.38;;;10.00;99.90;;;;;;5076992;28;20220;-72
2023/05/18 02:46:33;;;;;;;9.77;2.40;;;9.90;99.90;;;;;;5062699;28;20223;-72
2023/05/18 02:49:22;;;;;;;13.70;3.03;;;9.90;99.90;;;;;;5086958;28;20219;-74
2023/05/18 02:52:14;;;;;;;12.40;3.03;;;10.10;99.90;;;;;;5100784;27;20783;-72
2023/05/18 02:55:03;;;;;;;12.70;2.60;;;10.20;99.90;;;;;;5095204;27;20226;-72
2023/05/18 02:58:12;;;;;;;12.40;3.03;;;10.10;99.90;;;;;;5088097;28;20226;-72
2023/05/18 03:01:25;;;;;;;11.70;2.33;;;10.00;99.90;;;;;;5089221;28;20309;-72
2023/05/18 03:04:15;;;;;;;10.15;2.60;;;10.10;99.90;;;;;;5090614;28;20237;-73
2023/05/18 03:07:10;;;;;;;13.07;3.05;;;10.10;99.90;;;;;;5102004;27;20340;-73
2023/05/18 03:10:02;;;;;;;12.93;2.58;;;10.20;99.90;;;;;;5088068;27;20219;-73
2023/05/18 03:12:52;;;;;;;12.25;3.05;;;10.20;99.90;;;;;;5090440;27;20705;-72
2023/05/18 03:15:44;;;;;;;11.68;2.83;;;10.20;99.90;;;;;;5100839;27;20254;-71
2023/05/18 03:18:34;;;;;;;10.15;2.55;;;10.20;99.90;;;;;;5078871;28;20229;-71
2023/05/18 03:21:23;;;;;;;11.13;2.92;;;10.20;99.90;;;;;;5097795;28;20280;-72
2023/05/18 03:24:13;;;;;;;9.32;2.45;;;10.30;99.90;;;;;;5095600;28;20680;-73
2023/05/18 03:27:05;;;;;;;11.68;2.67;;;10.10;99.90;;;;;;5085142;28;20226;-74
2023/05/18 03:29:55;;;;;;;10.50;2.20;;;10.20;99.90;;;;;;5081934;28;21061;-73
2023/05/18 03:32:44;;;;;;;10.95;2.88;;;10.00;99.90;;;;;;5085768;28;20996;-73
2023/05/18 03:35:34;;;;;;;12.05;2.92;;;10.10;99.90;;;;;;5100451;27;20244;-72
2023/05/18 03:38:22;;;;;;;10.98;2.47;;;10.00;99.90;;;;;;5088638;28;20242;-72
2023/05/18 03:41:18;;;;;;;10.85;3.10;;;10.10;99.90;;;;;;5080280;28;20223;-71
2023/05/18 03:44:08;;;;;;;8.88;3.10;;;10.10;99.90;;;;;;5087258;27;20223;-71
2023/05/18 03:46:57;;;;;;;12.05;2.95;;;10.20;99.90;;;;;;5081312;28;20222;-72
2023/05/18 03:49:47;;;;;;;14.48;2.55;;;10.30;99.90;;;;;;5087550;28;20310;-70
2023/05/18 03:52:36;;;;;;;8.02;2.53;;;10.30;99.90;;;;;;5085339;28;20252;-71
2023/05/18 03:55:28;;;;;;;9.90;2.72;;;10.10;99.90;;;;;;5073495;28;20250;-72
2023/05/18 03:58:19;;;;;;;15.52;3.28;;;10.10;99.90;;;;;;5085189;28;20219;-72
2023/05/18 04:01:09;;;;;;;10.00;2.70;;;10.00;99.90;;;;;;5107136;27;20874;-71
2023/05/18 04:03:58;;;;;;;13.35;2.72;;;10.30;99.90;;;;;;5074571;28;20311;-71
2023/05/18 04:06:48;;;;;;;14.23;2.97;;;10.10;99.90;;;;;;5103717;27;20705;-71
2023/05/18 04:09:36;;;;;;;11.52;3.20;;;10.00;99.90;;;;;;5090875;28;20692;-71
2023/05/18 04:12:25;;;;;;;13.68;2.90;;;10.20;99.90;;;;;;5095991;28;20223;-71
2023/05/18 04:15:14;;;;;;;16.30;2.67;;;10.10;99.90;;;;;;5079458;28;20323;-71
2023/05/18 04:18:05;;;;;;;8.95;2.70;;;10.20;99.90;;;;;;5073265;28;20237;-73
2023/05/18 04:20:55;;;;;;;10.40;2.42;;;10.30;99.90;;;;;;5103338;28;20889;-71
2023/05/18 04:23:46;;;;;;;7.57;2.58;;;10.30;99.90;;;;;;5081608;28;20226;-71
2023/05/18 04:26:37;;;;;;;9.38;2.60;;;10.10;99.90;;;;;;5096008;28;20227;-72
2023/05/18 04:29:26;;;;;;;8.80;2.90;;;10.20;99.90;;;;;;5098741;28;20226;-72
2023/05/18 04:32:17;;;;;;;12.77;2.70;;;10.10;99.90;;;;;;5083198;28;20221;-72
2023/05/18 04:35:09;;;;;;;13.77;2.70;;;9.90;99.90;;;;;;5098309;28;20238;-72
2023/05/18 04:37:59;;;;;;;13.77;3.38;;;10.00;99.90;;;;;;5085688;28;20276;-72
2023/05/18 04:40:49;;;;;;;11.18;3.20;;;10.00;99.90;;;;;;5100705;28;20223;-72
2023/05/18 04:43:38;;;;;;;7.60;2.63;;;10.10;99.90;;;;;;5087030;28;20239;-73
2023/05/18 04:46:32;;;;;;;12.20;2.88;;;10.00;99.90;;;;;;5100153;28;20221;-73
2023/05/18 04:49:22;;;;;;;14.70;3.75;;;10.10;99.90;;;;;;5100968;28;20222;-71
2023/05/18 04:52:13;;;;;;;10.95;2.45;;;10.20;99.90;;;;;;5085099;28;20223;-69
2023/05/18 04:55:02;;;;;;;10.52;2.60;;;10.20;99.90;;;;;;5088446;28;20222;-71
2023/05/18 04:57:55;;;;;;;14.32;2.92;;;10.10;99.90;;;;;;5098500;28;20321;-71
2023/05/18 05:00:44;;;;;;;10.13;2.50;;;9.90;99.90;;;;;;5103746;28;20698;-73
2023/05/18 05:03:34;;;;;;;11.35;2.85;;;10.10;99.90;;;;;;5095420;28;21697;-72
2023/05/18 05:06:22;;;;;;;15.30;2.90;;;10.20;99.90;;;;;;5099668;28;20233;-71
2023/05/18 05:09:13;;;;;;;11.35;3.33;;;10.20;99.90;;;;;;5090035;28;20238;-69
2023/05/18 05:12:02;;;;;;;9.27;3.00;;;10.20;99.90;;;;;;5082660;28;20315;-73
2023/05/18 05:14:51;;;;;;;11.32;2.50;;;10.40;99.90;;;;;;5084714;28;20219;-79
2023/05/18 05:17:41;;;;;;;9.80;2.50;;;10.30;99.90;;;;;;5087985;28;20226;-74
2023/05/18 05:20:30;;;;;;;9.07;2.70;;;10.30;99.90;;;;;;5091262;28;20566;-79
2023/05/18 05:23:19;;;;;;;9.95;2.40;;;10.20;99.90;;;;;;5088120;28;20231;-76
2023/05/18 05:26:09;;;;;;;13.70;2.92;;;10.20;99.90;;;;;;5088844;28;20227;-85
2023/05/18 05:28:58;;;;;;;6.75;2.67;;;10.30;99.90;;;;;;5079580;28;20276;-77
2023/05/18 05:31:47;;;;;;;6.88;2.38;;;10.30;99.90;;;;;;5102392;27;20228;-71
2023/05/18 05:34:36;;;;;;;13.38;3.10;;;10.60;99.90;;;;;;5086698;28;20215;-71
2023/05/18 05:37:26;;;;;;;7.35;2.33;;;10.40;99.90;;;;;;5088695;27;20223;-73
2023/05/18 05:40:15;;;;;;;6.43;2.30;;;10.40;99.90;;;;;;5087343;28;20229;-71
2023/05/18 05:43:07;;;;;;;10.43;2.67;;;10.40;99.90;;;;;;5102518;28;20558;-71
2023/05/18 05:45:56;;;;;;;8.88;3.25;;;10.50;99.90;;;;;;5084907;28;20292;-72
2023/05/18 05:48:46;;;;;;;8.90;2.70;;;10.50;99.90;;;;;;5099056;27;20649;-71
2023/05/18 05:51:35;;;;;;;8.07;2.63;;;10.80;99.90;;;;;;5101281;28;20267;-71
2023/05/18 05:54:24;;;;;;;11.57;2.50;;;10.80;99.90;;;;;;5070826;28;20645;-70
2023/05/18 05:57:13;;;;;;;13.52;3.05;;;10.70;99.90;;;;;;5071427;28;20222;-73
2023/05/18 06:00:05;;;;;;;8.00;2.55;;;11.10;99.90;;;;;;5099278;28;20218;-73
2023/05/18 06:03:08;;;;;;;10.30;2.33;;;11.30;99.90;;;;;;5105321;28;20699;-72
2023/05/18 06:06:01;;;;;;;8.68;2.20;;;11.30;99.90;;;;;;5089749;28;20586;-71
2023/05/18 06:08:50;;;;;;;7.07;1.80;;;11.40;99.90;;;;;;5097424;28;20223;-74
2023/05/18 06:11:39;;;;;;;7.78;1.75;;;11.00;99.90;;;;;;5108175;28;20299;-71
2023/05/18 06:14:28;;;;;;;9.60;2.10;;;11.20;99.90;;;;;;5096532;28;20303;-72
2023/05/18 06:17:20;;;;;;;5.45;1.65;;;11.40;99.90;;;;;;5090845;28;20227;-70
2023/05/18 06:20:09;;;;;;;9.18;2.00;;;11.10;99.90;;;;;;5094084;27;20239;-70
2023/05/18 06:22:58;;;;;;;8.98;1.85;;;11.50;99.90;;;;;;5082295;28;20229;-73
2023/05/18 06:25:58;;;;;;;5.53;2.00;;;11.80;99.90;;;;;;5095287;28;20214;-70
2023/05/18 06:29:11;;;;;;;11.00;2.10;;;11.40;99.90;;;;;;5095221;27;20824;-69
2023/05/18 06:32:12;;;;;;;6.53;1.58;;;11.50;99.90;;;;;;5093816;27;20234;-74
2023/05/18 06:35:06;;;;;;;6.07;1.48;;;11.80;99.90;;;;;;5104936;27;20916;-69
2023/05/18 06:37:55;;;;;;;6.82;1.90;;;11.40;99.90;;;;;;5095520;27;20801;-69
2023/05/18 06:40:44;;;;;;;5.25;1.70;;;11.50;99.90;;;;;;5098028;28;20246;-69
2023/05/18 06:43:32;;;;;;;7.82;1.77;;;11.50;99.90;;;;;;5089171;27;20319;-71
2023/05/18 06:46:37;;;;;;;4.40;1.50;;;11.50;99.90;;;;;;5088570;28;20221;-69
2023/05/18 06:49:33;;;;;;;5.72;1.65;;;11.70;99.90;;;;;;5103949;27;20223;-71
2023/05/18 06:52:23;;;;;;;5.05;1.60;;;11.90;99.90;;;;;;5087944;27;20697;-67
2023/05/18 06:55:15;;;;;;;8.57;2.05;;;12.00;99.90;;;;;;5063655;28;20230;-71
2023/05/18 06:58:04;;;;;;;6.95;1.85;;;12.10;99.90;;;;;;5080556;28;20858;-68
2023/05/18 07:00:53;;;;;;;6.97;1.50;;;12.30;99.90;;;;;;5066632;28;20245;-70
2023/05/18 07:03:42;;;;;;;5.50;1.75;;;12.40;99.90;;;;;;5073804;28;20232;-70
2023/05/18 07:06:32;;;;;;;5.53;1.50;;;12.50;99.90;;;;;;5077424;28;20223;-70
2023/05/18 07:09:25;;;;;;;4.15;1.27;;;12.70;99.90;;;;;;5067700;28;20342;-72
2023/05/18 07:12:14;;;;;;;4.32;1.33;;;12.40;99.90;;;;;;5080469;28;20953;-69
2023/05/18 07:15:03;;;;;;;4.23;1.33;;;12.20;99.90;;;;;;5059695;28;20422;-72
2023/05/18 07:17:52;;;;;;;2.95;1.20;;;12.50;99.90;;;;;;5066682;28;20243;-72
2023/05/18 07:20:41;;;;;;;5.93;1.60;;;12.50;99.90;;;;;;5078437;28;20220;-74
2023/05/18 07:23:30;;;;;;;5.55;1.10;;;12.30;99.90;;;;;;5080725;28;20374;-73
2023/05/18 07:26:22;;;;;;;3.63;1.60;;;12.10;99.90;;;;;;5072898;28;20230;-73
2023/05/18 07:29:11;;;;;;;3.78;1.25;;;12.40;99.90;;;;;;5075766;27;20246;-74
2023/05/18 07:32:00;;;;;;;7.00;1.60;;;12.80;99.90;;;;;;5078292;28;20279;-73
2023/05/18 07:34:48;;;;;;;5.53;1.40;;;13.10;99.90;;;;;;5064733;28;20610;-71
2023/05/18 07:37:37;;;;;;;5.60;1.67;;;13.00;99.90;;;;;;5073350;28;20306;-71
2023/05/18 07:40:27;;;;;;;5.65;1.30;;;13.20;99.90;;;;;;5085624;28;20229;-71
2023/05/18 07:43:17;;;;;;;4.65;1.42;;;12.90;99.90;;;;;;5081153;28;20223;-75
2023/05/18 07:46:06;;;;;;;3.05;1.48;;;13.40;99.90;;;;;;5094444;28;20223;-73
2023/05/18 07:48:54;;;;;;;3.35;1.63;;;13.30;99.90;;;;;;5099535;28;20215;-75
2023/05/18 07:51:43;;;;;;;4.57;1.27;;;13.40;99.90;;;;;;5100649;28;20558;-75
2023/05/18 07:54:32;;;;;;;4.88;1.42;;;13.70;99.90;;;;;;5094783;28;20234;-73
2023/05/18 07:57:21;;;;;;;4.22;1.23;;;13.70;99.90;;;;;;5077962;28;20263;-75
2023/05/18 08:00:13;;;;;;;3.80;1.27;;;13.60;99.90;;;;;;5102506;27;20230;-73
2023/05/18 08:03:02;;;;;;;4.90;1.30;;;13.50;99.90;;;;;;5095318;28;20227;-73
2023/05/18 08:05:50;;;;;;;3.80;1.27;;;13.70;99.90;;;;;;5098563;28;20223;-75
2023/05/18 08:08:39;;;;;;;3.53;1.30;;;14.20;99.90;;;;;;5082553;27;20219;-72
2023/05/18 08:11:28;;;;;;;4.35;1.30;;;14.40;99.90;;;;;;5094189;28;20231;-71
2023/05/18 08:14:17;;;;;;;4.10;1.35;;;14.80;99.90;;;;;;5101303;27;20239;-72
2023/05/18 08:17:07;;;;;;;6.43;1.60;;;14.50;99.90;;;;;;5093326;28;20223;-70
2023/05/18 08:19:56;;;;;;;6.82;1.67;;;14.60;99.90;;;;;;5077136;28;20219;-71
2023/05/18 08:22:48;;;;;;;5.63;1.50;;;14.60;99.90;;;;;;5093903;27;20318;-71
2023/05/18 08:25:37;;;;;;;3.45;1.20;;;14.80;99.90;;;;;;5084936;28;20234;-70
2023/05/18 08:28:26;;;;;;;3.15;1.33;;;14.80;99.90;;;;;;5095847;28;20238;-71
2023/05/18 08:31:15;;;;;;;3.95;1.38;;;14.20;99.90;;;;;;5096094;28;20308;-71
2023/05/18 08:34:06;;;;;;;3.38;1.23;;;14.60;99.90;;;;;;5098960;28;20348;-74
2023/05/18 08:36:55;;;;;;;3.45;1.35;;;14.70;99.90;;;;;;5095889;28;20215;-71
2023/05/18 08:39:44;;;;;;;5.72;1.25;;;14.30;99.90;;;;;;5090878;28;20302;-71
2023/05/18 08:42:34;;;;;;;4.72;1.13;;;13.70;99.90;;;;;;5091216;28;20261;-70
2023/05/18 08:45:41;;;;;;;6.53;1.52;;;13.90;99.90;;;;;;5067293;28;20219;-70
2023/05/18 08:48:32;;;;;;;5.90;1.52;;;14.00;99.90;;;;;;5065233;28;20788;-70
2023/05/18 08:51:23;;;;;;;2.90;1.52;;;14.40;99.90;;;;;;5087388;28;20373;-70
2023/05/18 08:54:19;;;;;;;3.47;1.20;;;14.30;99.90;;;;;;5086272;28;20254;-71
2023/05/18 08:57:09;;;;;;;2.92;1.20;;;14.70;99.90;;;;;;5083818;28;20329;-70
2023/05/18 09:00:01;;;;;;;2.97;1.45;;;14.60;99.90;;;;;;5086032;28;20319;-71
2023/05/18 09:02:50;;;;;;;3.45;1.10;;;14.60;99.90;;;;;;5086697;28;20222;-72
2023/05/18 09:05:41;;;;;;;3.88;1.35;;;15.10;99.90;;;;;;5100478;28;20238;-72
2023/05/18 09:08:32;;;;;;;3.88;1.05;;;15.00;99.90;;;;;;5091077;28;20355;-71
2023/05/18 09:11:22;;;;;;;2.38;1.10;;;14.90;99.90;;;;;;5099952;28;20237;-72
2023/05/18 09:14:11;;;;;;;4.18;1.00;;;15.20;99.90;;;;;;5079090;28;20366;-72
2023/05/18 09:17:01;;;;;;;2.80;1.13;;;14.90;99.90;;;;;;5069446;28;20220;-72
2023/05/18 09:19:50;;;;;;;3.85;1.30;;;15.30;99.90;;;;;;5086177;28;20826;-71
2023/05/18 09:22:39;;;;;;;4.25;1.27;;;15.10;99.90;;;;;;5070283;28;20227;-71
2023/05/18 09:25:33;;;;;;;7.07;1.40;;;15.20;99.90;;;;;;5090400;28;20306;-72
2023/05/18 09:28:27;;;;;;;3.63;1.20;;;15.00;99.90;;;;;;5078117;28;20224;-71
2023/05/18 09:31:18;;;;;;;2.88;1.30;;;14.70;99.90;;;;;;5066846;28;20247;-72
2023/05/18 09:34:07;;;;;;;4.20;1.20;;;15.30;99.90;;;;;;5084149;28;20219;-72
2023/05/18 09:36:56;;;;;;;4.65;1.35;;;15.50;99.90;;;;;;5094854;28;20231;-71
2023/05/18 09:39:45;;;;;;;3.40;1.50;;;15.80;99.90;;;;;;5101244;28;20215;-71
2023/05/18 09:42:40;;;;;;;4.28;1.60;;;15.80;99.90;;;;;;5091623;28;20211;-73
2023/05/18 09:45:29;;;;;;;4.00;1.30;;;15.70;99.90;;;;;;5080761;28;20227;-71
2023/05/18 09:48:18;;;;;;;2.70;1.42;;;15.20;99.90;;;;;;5083056;28;20230;-72
2023/05/18 09:51:07;;;;;;;10.32;1.60;;;15.60;99.90;;;;;;5084237;27;20229;-72
2023/05/18 09:53:58;;;;;;;3.80;1.33;;;15.40;99.90;;;;;;5063366;28;20333;-71
2023/05/18 09:56:47;;;;;;;2.63;1.30;;;16.00;99.90;;;;;;5066126;28;20227;-72
2023/05/18 10:00:09;;;;;;;3.88;1.52;;;15.70;99.90;;;;;;5087826;28;20214;-72
2023/05/18 10:02:59;;;;;;;4.43;1.55;;;15.80;99.90;;;;;;5070431;28;20311;-72
2023/05/18 10:05:49;;;;;;;3.67;1.20;;;15.30;99.90;;;;;;5078285;28;20725;-72
2023/05/18 10:08:38;;;;;;;3.28;1.30;;;15.20;99.90;;;;;;5094616;28;20242;-72
2023/05/18 10:11:32;;;;;;;2.20;1.17;;;15.30;99.90;;;;;;5081801;28;20234;-72
2023/05/18 10:14:24;;;;;;;6.82;1.50;;;15.90;99.90;;;;;;5094774;28;20615;-72
2023/05/18 10:17:15;;;;;;;4.13;1.20;;;15.80;99.90;;;;;;5102317;28;20229;-74
2023/05/18 10:20:09;;;;;;;4.07;1.23;;;15.50;99.90;;;;;;5104475;28;20332;-69
2023/05/18 10:23:05;;;;;;;6.27;1.60;;;15.80;99.90;;;;;;5076655;27;20447;-72
2023/05/18 10:25:54;;;;;;;7.18;1.20;;;16.20;99.90;;;;;;5097627;27;21143;-69
2023/05/18 10:28:46;;;;;;;4.95;0.98;;;16.20;99.90;;;;;;5100465;27;20234;-70
2023/05/18 10:31:37;;;;;;;2.75;1.10;;;16.20;99.90;;;;;;5073358;27;20229;-73
2023/05/18 10:34:28;;;;;;;10.02;1.23;;;16.20;99.90;;;;;;5079883;28;20673;-72
2023/05/18 10:37:17;;;;;;;3.60;0.95;;;16.50;99.90;;;;;;5103732;27;20853;-73
2023/05/18 10:40:08;;;;;;;5.55;1.65;;;16.50;99.90;;;;;;5104628;27;20395;-73
2023/05/18 10:42:58;;;;;;;3.63;1.50;;;16.90;99.90;;;;;;5104095;27;20310;-77
2023/05/18 10:45:49;;;;;;;3.03;1.30;;;17.60;99.90;;;;;;5085921;28;20220;-74
2023/05/18 10:48:40;;;;;;;4.38;1.23;;;17.50;99.90;;;;;;5066277;28;20318;-72
2023/05/18 10:51:31;;;;;;;4.25;0.90;;;17.20;99.90;;;;;;5097892;27;20215;-73
2023/05/18 10:54:21;;;;;;;3.03;1.38;;;17.60;99.90;;;;;;5095548;28;20226;-76
2023/05/18 10:57:14;;;;;;;2.95;1.48;;;17.70;99.90;;;;;;5084996;28;20231;-72
2023/05/18 11:00:09;;;;;;;4.07;1.30;;;18.30;99.90;;;;;;5079635;28;20215;-75
2023/05/18 11:02:58;;;;;;;4.05;0.80;;;19.10;99.90;;;;;;5075839;28;20228;-75
2023/05/18 11:05:51;;;;;;;3.05;1.13;;;19.50;99.90;;;;;;5087284;27;20212;-76
2023/05/18 11:08:50;;;;;;;2.47;0.90;;;18.90;99.90;;;;;;5070821;28;20232;-73
2023/05/18 11:11:52;;;;;;;4.05;0.95;;;19.30;99.90;;;;;;5089442;28;20229;-76
2023/05/18 11:14:49;;;;;;;2.20;1.00;;;20.00;99.90;;;;;;5083155;28;20223;-75
2023/05/18 11:17:38;;;;;;;3.13;1.05;;;19.60;99.90;;;;;;5077146;28;20238;-76
2023/05/18 11:20:26;;;;;;;5.13;1.00;;;19.80;99.90;;;;;;5064613;28;20219;-71
2023/05/18 11:23:19;;;;;;;1.95;1.05;;;20.30;99.90;;;;;;5083239;28;20223;-72
2023/05/18 11:26:16;;;;;;;5.03;1.10;;;21.10;99.90;;;;;;5086102;28;20231;-74
2023/05/18 11:29:30;;;;;;;2.53;1.30;;;20.90;99.90;;;;;;5052631;27;20643;-73
2023/05/18 11:32:23;;;;;;;3.55;1.10;;;21.20;99.90;;;;;;5039512;28;20266;-72
2023/05/18 11:35:23;;;;;;;4.53;1.17;;;22.30;99.90;;;;;;5038465;28;20264;-72
2023/05/18 11:38:12;;;;;;;2.75;1.15;;;23.10;99.90;;;;;;5042578;28;20233;-73
2023/05/18 11:41:02;;;;;;;4.05;1.05;;;22.70;99.90;;;;;;5041347;28;20298;-73
2023/05/18 11:44:16;;;;;;;2.60;1.10;;;23.00;99.20;;;;;;5060883;28;20220;-72
2023/05/18 11:47:09;;;;;;;2.80;1.02;;;22.90;99.90;;;;;;5036867;28;20225;-70
2023/05/18 11:49:59;;;;;;;2.50;0.90;;;23.90;99.50;;;;;;5036987;28;20221;-69
2023/05/18 11:52:52;;;;;;;2.80;1.00;;;22.60;95.20;;;;;;5034667;28;20232;-72
2023/05/18 11:55:41;;;;;;;1.30;0.80;;;24.20;95.20;;;;;;5031992;28;20274;-71
2023/05/18 11:58:30;;;;;;;2.55;1.10;;;25.70;93.90;;;;;;5035221;28;20253;-70
2023/05/18 12:01:20;;;;;;;3.67;1.30;;;27.10;91.90;;;;;;5051484;28;20356;-77
2023/05/18 12:04:11;;;;;;;12.40;1.60;;;26.20;92.30;;;;;;5056179;28;20237;-71
2023/05/18 12:07:04;;;;;;;2.08;1.10;;;23.90;90.60;;;;;;5059378;28;20873;-73
2023/05/18 12:09:57;;;;;;;2.40;1.15;;;21.70;93.40;;;;;;5057208;28;20233;-76
2023/05/18 12:12:49;;;;;;;5.90;1.08;;;23.80;92.40;;;;;;5054730;28;20472;-75
2023/05/18 12:15:39;;;;;;;4.15;1.30;;;24.20;94.30;;;;;;5055468;28;20299;-77
2023/05/18 12:18:29;;;;;;;2.72;0.90;;;26.10;94.00;;;;;;5062875;28;20712;-76
2023/05/18 12:21:23;;;;;;;1.95;1.10;;;27.60;86.00;;;;;;5037384;28;20332;-77
2023/05/18 12:24:12;;;;;;;1.50;1.05;;;26.40;83.50;;;;;;5069002;28;20243;-76
2023/05/18 12:27:03;;;;;;;3.40;1.10;;;25.50;86.30;;;;;;5048455;28;20228;-75
2023/05/18 12:29:55;;;;;;;2.60;1.10;;;24.20;82.90;;;;;;5046576;28;20714;-75
2023/05/18 12:32:46;;;;;;;3.28;1.00;;;22.50;85.70;;;;;;5056920;28;20845;-73
2023/05/18 12:35:35;;;;;;;1.98;1.10;;;21.80;88.00;;;;;;5057469;28;20375;-74
2023/05/18 12:38:27;;;;;;;4.80;1.10;;;21.80;91.30;;;;;;5028665;28;20355;-75
2023/05/18 12:41:23;;;;;;;1.92;0.82;;;20.70;90.60;;;;;;5025922;28;20237;-75
2023/05/18 12:44:12;;;;;;;3.17;1.08;;;19.40;92.20;;;;;;5024819;28;20229;-75
2023/05/18 12:47:01;;;;;;;2.53;1.00;;;19.20;94.20;;;;;;5024510;28;20226;-76
2023/05/18 12:49:50;;;;;;;4.40;1.15;;;18.90;95.50;;;;;;5027016;28;20677;-76
2023/05/18 12:52:40;;;;;;;2.70;0.80;;;18.40;95.40;;;;;;5024031;28;20539;-76
2023/05/18 12:55:31;;;;;;;2.92;1.00;;;18.00;99.30;;;;;;5036323;28;20225;-76
2023/05/18 12:58:21;;;;;;;2.80;1.02;;;18.50;99.90;;;;;;5042239;28;21097;-76
2023/05/18 13:01:11;;;;;;;2.88;1.00;;;18.30;98.70;;;;;;5042796;28;20229;-75
2023/05/18 13:03:59;;;;;;;4.68;1.20;;;18.40;99.60;;;;;;5042298;28;20733;-75
2023/05/18 13:06:49;;;;;;;2.00;0.95;;;18.50;99.20;;;;;;5046133;28;20294;-77
2023/05/18 13:09:45;;;;;;;3.60;0.85;;;18.50;99.30;;;;;;5045017;28;20700;-78
2023/05/18 13:12:44;;;;;;;2.47;0.82;;;18.10;99.90;;;;;;5026760;28;20233;-77
2023/05/18 13:15:36;;;;;;;3.75;0.90;;;17.70;99.00;;;;;;5021772;28;20298;-77
2023/05/18 13:18:26;;;;;;;1.10;0.70;;;17.50;99.90;;;;;;5033089;28;20233;-77
2023/05/18 13:21:14;;;;;;;4.97;1.08;;;17.70;99.90;;;;;;5029680;28;20674;-76
2023/05/18 13:24:04;;;;;;;4.55;0.98;;;17.20;99.90;;;;;;5041896;28;21021;-77
2023/05/18 13:26:53;;;;;;;4.72;1.10;;;17.10;99.90;;;;;;5043567;28;20237;-76
2023/05/18 13:29:58;;;;;;;2.65;1.05;;;16.90;99.90;;;;;;5038539;28;21099;-78
2023/05/18 13:32:48;;;;;;;2.67;1.00;;;17.20;99.90;;;;;;5039908;28;20227;-77
2023/05/18 13:35:39;;;;;;;2.97;1.00;;;16.90;99.90;;;;;;5047433;28;20346;-77
2023/05/18 13:38:28;;;;;;;4.40;1.20;;;16.70;99.90;;;;;;5065827;28;20242;-73
2023/05/18 13:41:16;;;;;;;2.22;0.80;;;16.60;99.90;;;;;;5062157;28;20689;-74
2023/05/18 13:44:05;;;;;;;1.63;1.10;;;16.60;99.90;;;;;;5046848;28;20224;-73
2023/05/18 13:46:56;;;;;;;8.25;1.38;;;16.60;99.90;;;;;;5039387;28;20220;-72
2023/05/18 13:49:44;;;;;;;1.85;1.05;;;16.70;99.90;;;;;;5049942;28;20224;-75
2023/05/18 13:52:33;;;;;;;3.40;1.00;;;16.40;99.90;;;;;;5067292;28;20254;-72
2023/05/18 13:55:22;;;;;;;6.03;1.00;;;16.10;99.90;;;;;;5051836;28;20219;-73
2023/05/18 13:58:11;;;;;;;3.65;1.35;;;16.40;99.90;;;;;;5059715;28;20224;-72
2023/05/18 14:01:02;;;;;;;5.07;1.20;;;16.60;99.90;;;;;;5073780;28;20310;-73
2023/05/18 14:03:53;;;;;;;2.08;0.93;;;16.80;99.90;;;;;;5079950;28;20223;-80
2023/05/18 14:06:41;;;;;;;2.10;1.00;;;16.50;99.90;;;;;;5086769;28;20216;-72
2023/05/18 14:09:31;;;;;;;2.58;1.10;;;16.60;99.90;;;;;;5080360;28;20594;-71
2023/05/18 14:12:19;;;;;;;3.80;1.00;;;16.70;99.90;;;;;;5082290;28;20223;-71
2023/05/18 14:15:09;;;;;;;3.30;1.20;;;16.60;99.90;;;;;;5082199;28;20238;-72
2023/05/18 14:17:58;;;;;;;3.35;0.98;;;16.30;99.90;;;;;;5080505;28;20222;-74
2023/05/18 14:20:48;;;;;;;4.18;1.10;;;16.30;99.90;;;;;;5078749;28;20226;-72
2023/05/18 14:23:37;;;;;;;3.15;1.10;;;16.20;99.90;;;;;;5076785;28;20215;-72
2023/05/18 14:26:27;;;;;;;4.43;1.20;;;16.30;99.90;;;;;;5084151;28;20318;-72
2023/05/18 14:29:16;;;;;;;6.47;1.00;;;16.10;99.90;;;;;;5077699;28;20234;-72
2023/05/18 14:32:06;;;;;;;2.70;1.05;;;15.80;99.90;;;;;;5072404;28;20258;-73
2023/05/18 14:34:56;;;;;;;2.20;0.80;;;15.70;99.90;;;;;;5077687;28;20560;-75
2023/05/18 14:37:47;;;;;;;3.50;1.13;;;15.80;99.90;;;;;;5076878;28;20311;-74
2023/05/18 14:40:36;;;;;;;3.28;1.30;;;15.80;99.90;;;;;;5069736;28;20208;-73
2023/05/18 14:43:25;;;;;;;2.55;1.30;;;15.80;99.90;;;;;;5075108;28;20300;-73
2023/05/18 14:46:13;;;;;;;2.17;1.00;;;15.70;99.90;;;;;;5068828;28;20717;-73